createdAt,value
2022-08-21T00:01:44.628Z,43.60
2022-08-21T00:04:14.567Z,43.60
2022-08-21T00:06:47.841Z,43.70
2022-08-21T00:09:14.733Z,43.70
2022-08-21T00:11:41.480Z,43.80
2022-08-21T00:14:11.112Z,43.80
2022-08-21T00:16:38.091Z,44.00
2022-08-21T00:19:05.367Z,44.00
2022-08-21T00:21:32.455Z,44.00
2022-08-21T00:23:59.315Z,44.10
2022-08-21T00:26:26.193Z,44.10
2022-08-21T00:28:53.729Z,44.20
2022-08-21T00:31:22.771Z,44.50
2022-08-21T00:33:50.594Z,44.30
2022-08-21T00:36:17.522Z,44.30
2022-08-21T00:38:44.277Z,44.30
2022-08-21T00:41:20.983Z,44.40
2022-08-21T00:43:59.458Z,44.50
2022-08-21T00:46:28.543Z,44.40
2022-08-21T00:48:58.685Z,44.50
2022-08-21T00:51:47.489Z,44.60
2022-08-21T00:54:19.042Z,44.80
2022-08-21T00:56:54.010Z,44.70
2022-08-21T00:59:24.206Z,44.90
2022-08-21T01:01:51.678Z,44.80
2022-08-21T01:04:18.690Z,44.80
2022-08-21T01:06:45.695Z,44.90
2022-08-21T01:09:14.102Z,45.00
2022-08-21T01:11:43.918Z,45.10
2022-08-21T01:14:13.075Z,45.10
2022-08-21T01:16:43.924Z,45.20
2022-08-21T01:19:11.858Z,45.30
2022-08-21T01:21:39.221Z,45.20
2022-08-21T01:24:06.773Z,45.30
2022-08-21T01:26:35.781Z,45.40
2022-08-21T01:29:08.783Z,45.40
2022-08-21T01:31:35.534Z,45.60
2022-08-21T01:34:02.516Z,45.40
2022-08-21T01:36:29.925Z,45.50
2022-08-21T01:38:57.229Z,45.50
2022-08-21T01:41:24.141Z,45.60
2022-08-21T01:43:51.178Z,45.70
2022-08-21T01:46:18.434Z,45.70
2022-08-21T01:48:45.445Z,45.80
2022-08-21T01:51:12.633Z,45.80
2022-08-21T01:53:39.723Z,45.80
2022-08-21T01:56:12.651Z,45.90
2022-08-21T01:58:42.153Z,46.00
2022-08-21T02:01:10.272Z,46.00
2022-08-21T02:03:38.253Z,46.10
2022-08-21T02:06:07.657Z,46.10
2022-08-21T02:08:35.534Z,46.20
2022-08-21T02:11:02.398Z,46.20
2022-08-21T02:13:29.660Z,46.30
2022-08-21T02:15:56.509Z,46.20
2022-08-21T02:18:23.231Z,46.30
2022-08-21T02:20:55.802Z,46.40
2022-08-21T02:23:27.317Z,46.50
2022-08-21T02:26:08.005Z,46.50
2022-08-21T02:28:36.250Z,46.90
2022-08-21T02:31:03.692Z,46.60
2022-08-21T02:33:30.736Z,46.60
2022-08-21T02:35:58.330Z,46.60
2022-08-21T02:38:28.709Z,46.70
2022-08-21T02:40:57.161Z,46.80
2022-08-21T02:43:26.782Z,47.30
2022-08-21T02:45:56.055Z,46.90
2022-08-21T02:48:26.997Z,46.90
2022-08-21T02:50:58.294Z,46.90
2022-08-21T02:53:25.710Z,47.00
2022-08-21T02:55:54.699Z,46.90
2022-08-21T02:58:34.252Z,46.90
2022-08-21T03:01:01.939Z,47.20
2022-08-21T03:03:30.203Z,46.90
2022-08-21T03:05:57.230Z,47.00
2022-08-21T03:08:27.715Z,47.00
2022-08-21T03:10:55.585Z,47.10
2022-08-21T03:13:22.382Z,47.20
2022-08-21T03:15:51.317Z,47.20
2022-08-21T03:18:18.248Z,47.20
2022-08-21T03:20:46.214Z,47.20
2022-08-21T03:23:16.726Z,47.30
2022-08-21T03:25:45.026Z,47.30
2022-08-21T03:28:16.169Z,47.30
2022-08-21T03:30:45.161Z,47.40
2022-08-21T03:33:13.002Z,47.30
2022-08-21T03:35:46.653Z,47.30
2022-08-21T03:38:14.299Z,47.40
2022-08-21T03:40:43.114Z,47.50
2022-08-21T03:43:10.304Z,47.60
2022-08-21T03:45:38.320Z,47.60
2022-08-21T03:48:07.539Z,47.50
2022-08-21T03:50:40.994Z,47.60
2022-08-21T03:53:15.725Z,47.70
2022-08-21T03:55:47.706Z,48.10
2022-08-21T03:58:17.728Z,47.70
2022-08-21T04:00:47.304Z,47.70
2022-08-21T04:03:14.209Z,47.80
2022-08-21T04:05:41.820Z,47.80
2022-08-21T04:08:08.817Z,47.80
2022-08-21T04:10:38.026Z,47.80
2022-08-21T04:13:06.149Z,47.90
2022-08-21T04:15:33.977Z,47.90
2022-08-21T04:18:01.407Z,47.90
2022-08-21T04:20:28.410Z,47.80
2022-08-21T04:22:57.334Z,47.90
2022-08-21T04:25:26.319Z,47.90
2022-08-21T04:27:53.514Z,48.00
2022-08-21T04:30:20.597Z,48.00
2022-08-21T04:32:50.019Z,48.00
2022-08-21T04:35:22.418Z,48.10
2022-08-21T04:37:49.535Z,48.10
2022-08-21T04:40:19.228Z,48.10
2022-08-21T04:42:52.442Z,48.20
2022-08-21T04:45:28.757Z,48.30
2022-08-21T04:47:57.577Z,48.30
2022-08-21T04:50:30.367Z,48.30
2022-08-21T04:53:14.663Z,48.40
2022-08-21T04:55:43.003Z,48.40
2022-08-21T04:58:13.487Z,48.50
2022-08-21T05:00:41.662Z,48.60
2022-08-21T05:03:10.580Z,48.50
2022-08-21T05:05:38.095Z,48.70
2022-08-21T05:08:07.041Z,48.70
2022-08-21T05:10:34.213Z,48.70
2022-08-21T05:13:02.102Z,48.70
2022-08-21T05:15:29.148Z,48.80
2022-08-21T05:18:00.672Z,48.80
2022-08-21T05:20:29.010Z,48.90
2022-08-21T05:22:56.135Z,48.90
2022-08-21T05:25:23.664Z,49.00
2022-08-21T05:27:52.060Z,49.20
2022-08-21T05:30:20.347Z,49.30
2022-08-21T05:32:48.780Z,49.40
2022-08-21T05:35:15.994Z,49.50
2022-08-21T05:37:42.848Z,49.60
2022-08-21T05:40:21.880Z,49.60
2022-08-21T05:42:54.498Z,49.70
2022-08-21T05:45:43.289Z,49.80
2022-08-21T05:48:19.974Z,50.10
2022-08-21T05:51:12.041Z,50.30
2022-08-21T05:53:39.385Z,50.20
2022-08-21T05:56:07.913Z,50.10
2022-08-21T05:58:35.221Z,50.20
2022-08-21T06:01:03.867Z,50.30
2022-08-21T06:03:33.670Z,50.30
2022-08-21T06:06:00.873Z,50.40
2022-08-21T06:08:28.748Z,50.40
2022-08-21T06:10:57.770Z,50.50
2022-08-21T06:13:25.506Z,50.70
2022-08-21T06:16:03.748Z,50.60
2022-08-21T06:18:30.897Z,51.00
2022-08-21T06:20:57.613Z,50.70
2022-08-21T06:23:24.595Z,50.90
2022-08-21T06:26:00.476Z,50.90
2022-08-21T06:28:27.327Z,50.90
2022-08-21T06:30:54.161Z,51.00
2022-08-21T06:33:21.219Z,51.30
2022-08-21T06:35:48.102Z,51.30
2022-08-21T06:38:15.323Z,51.50
2022-08-21T06:40:43.725Z,51.50
2022-08-21T06:43:17.718Z,51.70
2022-08-21T06:45:45.449Z,51.80
2022-08-21T06:48:16.935Z,51.70
2022-08-21T06:50:46.861Z,51.70
2022-08-21T06:53:19.833Z,51.70
2022-08-21T06:55:47.699Z,51.90
2022-08-21T06:58:14.889Z,51.80
2022-08-21T07:00:46.097Z,51.90
2022-08-21T07:03:22.102Z,52.00
2022-08-21T07:05:48.856Z,52.40
2022-08-21T07:08:15.868Z,52.20
2022-08-21T07:10:42.953Z,52.30
2022-08-21T07:13:09.716Z,52.30
2022-08-21T07:15:36.537Z,52.30
2022-08-21T07:18:03.951Z,52.40
2022-08-21T07:20:31.877Z,52.50
2022-08-21T07:23:02.617Z,52.50
2022-08-21T07:25:29.482Z,52.50
2022-08-21T07:27:56.805Z,52.40
2022-08-21T07:30:24.035Z,52.40
2022-08-21T07:32:51.818Z,52.40
2022-08-21T07:35:20.170Z,52.50
2022-08-21T07:37:47.530Z,52.80
2022-08-21T07:40:16.298Z,52.60
2022-08-21T07:42:44.226Z,53.10
2022-08-21T07:45:12.399Z,52.50
2022-08-21T07:47:42.112Z,52.70
2022-08-21T07:50:12.470Z,52.70
2022-08-21T07:52:40.517Z,52.80
2022-08-21T07:55:09.337Z,52.60
2022-08-21T07:57:36.378Z,52.50
2022-08-21T08:00:06.242Z,52.50
2022-08-21T08:02:39.881Z,52.50
2022-08-21T08:05:11.255Z,52.40
2022-08-21T08:07:38.934Z,52.70
2022-08-21T08:10:07.872Z,52.60
2022-08-21T08:12:36.780Z,52.50
2022-08-21T08:15:06.608Z,52.50
2022-08-21T08:17:33.359Z,52.50
2022-08-21T08:20:02.156Z,52.40
2022-08-21T08:22:29.452Z,52.40
2022-08-21T08:24:56.634Z,52.60
2022-08-21T08:27:23.808Z,53.30
2022-08-21T08:29:50.964Z,54.40
2022-08-21T08:32:17.866Z,55.50
2022-08-21T08:34:44.617Z,56.50
2022-08-21T08:37:12.041Z,57.00
2022-08-21T08:39:39.083Z,57.20
2022-08-21T08:42:32.289Z,56.30
2022-08-21T08:45:08.895Z,55.00
2022-08-21T08:47:45.442Z,54.40
2022-08-21T08:50:17.891Z,52.40
2022-08-21T08:52:53.413Z,50.60
2022-08-21T08:55:33.506Z,48.00
2022-08-21T08:58:00.813Z,46.80
2022-08-21T09:00:27.494Z,47.90
2022-08-21T09:03:00.725Z,47.00
2022-08-21T09:05:56.393Z,45.70
2022-08-21T09:08:49.766Z,45.20
2022-08-21T09:11:16.633Z,43.90
2022-08-21T09:14:09.602Z,44.10
2022-08-21T09:16:39.225Z,41.60
2022-08-21T09:19:32.450Z,41.50
2022-08-21T09:22:18.231Z,38.60
2022-08-21T09:25:04.607Z,39.10
2022-08-21T09:27:33.007Z,39.00
2022-08-21T09:29:59.680Z,38.90
2022-08-21T09:32:37.189Z,38.40
2022-08-21T09:35:13.696Z,36.70
2022-08-21T09:38:03.720Z,36.20
2022-08-21T09:40:36.567Z,35.70
2022-08-21T09:43:06.445Z,35.50
2022-08-21T09:45:34.808Z,35.50
2022-08-21T09:48:22.879Z,35.50
2022-08-21T09:50:54.512Z,34.50
2022-08-21T09:53:26.900Z,34.90
2022-08-21T09:56:35.568Z,33.00
2022-08-21T09:59:13.121Z,33.50
2022-08-21T10:01:45.541Z,33.30
2022-08-21T10:04:12.744Z,33.10
2022-08-21T10:06:39.689Z,33.30
2022-08-21T10:09:20.958Z,32.70
2022-08-21T10:12:11.058Z,31.40
2022-08-21T10:14:57.929Z,31.60
2022-08-21T10:17:33.586Z,31.20
2022-08-21T10:20:12.670Z,30.70
2022-08-21T10:23:11.285Z,30.70
2022-08-21T10:25:57.159Z,30.00
2022-08-21T10:28:50.358Z,30.20
2022-08-21T10:31:19.740Z,29.80
2022-08-21T10:33:58.529Z,28.60
2022-08-21T10:36:47.986Z,28.30
2022-08-21T10:39:37.784Z,28.00
2022-08-21T10:42:11.904Z,25.90
2022-08-21T10:45:09.691Z,27.50
2022-08-21T10:47:43.322Z,27.70
2022-08-21T10:50:18.085Z,28.30
2022-08-21T10:53:18.074Z,28.40
2022-08-21T10:55:59.941Z,28.00
2022-08-21T10:58:41.227Z,28.00
2022-08-21T11:01:40.808Z,27.60
2022-08-21T11:04:29.909Z,27.60
2022-08-21T11:07:35.762Z,27.60
2022-08-21T11:10:13.743Z,27.70
2022-08-21T11:12:43.854Z,26.90
2022-08-21T11:15:37.732Z,26.90
2022-08-21T11:18:16.702Z,26.70
2022-08-21T11:21:04.635Z,26.10
2022-08-21T11:23:55.404Z,26.40
2022-08-21T11:26:44.244Z,26.60
2022-08-21T11:29:19.225Z,25.00
2022-08-21T11:32:23.182Z,25.60
2022-08-21T11:35:14.357Z,25.60
2022-08-21T11:37:47.521Z,25.70
2022-08-21T11:40:17.061Z,25.80
2022-08-21T11:43:08.283Z,25.70
2022-08-21T11:45:53.675Z,25.50
2022-08-21T11:48:40.080Z,25.50
2022-08-21T11:51:22.160Z,25.80
2022-08-21T11:54:15.523Z,25.30
2022-08-21T11:56:52.264Z,25.30
2022-08-21T11:59:40.754Z,24.80
2022-08-21T12:02:17.556Z,24.40
2022-08-21T12:04:53.447Z,24.40
2022-08-21T12:07:35.910Z,24.20
2022-08-21T12:10:08.238Z,24.20
2022-08-21T12:12:38.802Z,24.20
2022-08-21T12:15:21.065Z,24.00
2022-08-21T12:18:01.437Z,23.90
2022-08-21T12:20:50.196Z,23.90
2022-08-21T12:23:31.769Z,23.50
2022-08-21T12:26:20.358Z,24.00
2022-08-21T12:28:47.832Z,24.20
2022-08-21T12:31:27.571Z,23.90
2022-08-21T12:34:01.967Z,23.50
2022-08-21T12:36:43.513Z,23.60
2022-08-21T12:39:20.494Z,23.60
2022-08-21T12:42:01.962Z,23.60
2022-08-21T12:44:43.355Z,23.80
2022-08-21T12:47:44.930Z,23.60
2022-08-21T12:50:28.193Z,23.70
2022-08-21T12:53:03.292Z,23.50
2022-08-21T12:55:33.182Z,23.80
2022-08-21T12:58:01.053Z,23.90
2022-08-21T13:00:30.353Z,23.90
2022-08-21T13:02:58.494Z,23.90
2022-08-21T13:05:33.974Z,23.90
2022-08-21T13:08:05.390Z,23.70
2022-08-21T13:10:34.646Z,23.50
2022-08-21T13:13:12.604Z,23.50
2022-08-21T13:15:46.471Z,23.10
2022-08-21T13:18:27.465Z,23.30
2022-08-21T13:21:05.353Z,23.10
2022-08-21T13:23:32.325Z,23.20
2022-08-21T13:25:59.413Z,23.30
2022-08-21T13:28:34.664Z,23.30
2022-08-21T13:31:02.598Z,23.40
2022-08-21T13:33:37.632Z,23.40
2022-08-21T13:36:25.166Z,23.10
2022-08-21T13:38:54.336Z,23.00
2022-08-21T13:41:26.964Z,23.00
2022-08-21T13:44:02.773Z,23.10
2022-08-21T13:46:33.629Z,23.00
2022-08-21T13:49:05.745Z,23.00
2022-08-21T13:51:34.764Z,22.90
2022-08-21T13:54:01.826Z,22.90
2022-08-21T13:56:47.004Z,22.90
2022-08-21T13:59:25.646Z,22.90
2022-08-21T14:02:00.705Z,23.00
2022-08-21T14:04:59.186Z,23.00
2022-08-21T14:07:32.649Z,22.90
2022-08-21T14:10:06.616Z,23.10
2022-08-21T14:12:45.077Z,23.00
2022-08-21T14:15:15.396Z,22.90
2022-08-21T14:17:43.353Z,22.90
2022-08-21T14:20:25.630Z,22.90
2022-08-21T14:22:52.753Z,22.90
2022-08-21T14:25:25.411Z,22.90
2022-08-21T14:28:40.774Z,22.80
2022-08-21T14:31:21.978Z,22.90
2022-08-21T14:33:49.200Z,23.00
2022-08-21T14:36:16.074Z,23.00
2022-08-21T14:38:43.343Z,23.20
2022-08-21T14:41:17.105Z,23.30
2022-08-21T14:43:46.301Z,23.30
2022-08-21T14:46:23.932Z,23.30
2022-08-21T14:48:51.293Z,23.10
2022-08-21T14:51:18.634Z,23.10
2022-08-21T14:53:45.685Z,23.10
2022-08-21T14:56:14.222Z,23.10
2022-08-21T14:58:49.616Z,23.10
2022-08-21T15:01:19.295Z,23.00
2022-08-21T15:03:48.337Z,23.00
2022-08-21T15:06:17.167Z,23.10
2022-08-21T15:08:44.237Z,23.20
2022-08-21T15:11:41.084Z,23.20
2022-08-21T15:14:06.800Z,23.10
2022-08-21T15:16:34.597Z,23.20
2022-08-21T15:19:01.328Z,23.20
2022-08-21T15:21:27.998Z,23.10
2022-08-21T15:23:54.783Z,23.00
2022-08-21T15:26:24.138Z,23.00
2022-08-21T15:28:51.213Z,23.00
2022-08-21T15:31:18.165Z,22.80
2022-08-21T15:33:44.889Z,22.70
2022-08-21T15:36:11.678Z,22.70
2022-08-21T15:38:38.409Z,22.70
2022-08-21T15:41:06.502Z,22.90
2022-08-21T15:43:43.460Z,23.00
2022-08-21T15:46:13.553Z,23.10
2022-08-21T15:48:40.501Z,23.20
2022-08-21T15:51:07.289Z,23.30
2022-08-21T15:53:37.921Z,23.30
2022-08-21T15:56:05.037Z,23.40
2022-08-21T15:58:32.534Z,23.50
2022-08-21T16:01:01.242Z,23.50
2022-08-21T16:03:28.922Z,23.60
2022-08-21T16:05:57.678Z,23.60
2022-08-21T16:08:26.049Z,23.80
2022-08-21T16:10:54.023Z,23.80
2022-08-21T16:13:38.925Z,23.90
2022-08-21T16:16:06.762Z,24.20
2022-08-21T16:18:33.653Z,24.20
2022-08-21T16:21:00.469Z,24.20
2022-08-21T16:23:27.158Z,24.20
2022-08-21T16:25:54.072Z,24.20
2022-08-21T16:28:21.807Z,24.20
2022-08-21T16:30:50.625Z,24.30
2022-08-21T16:33:30.533Z,24.20
2022-08-21T16:35:57.356Z,24.20
2022-08-21T16:38:24.670Z,24.20
2022-08-21T16:40:51.398Z,24.20
2022-08-21T16:43:26.845Z,24.30
2022-08-21T16:45:54.942Z,24.30
2022-08-21T16:48:22.234Z,24.40
2022-08-21T16:50:51.087Z,24.40
2022-08-21T16:53:18.370Z,24.40
2022-08-21T16:55:46.138Z,24.50
2022-08-21T16:58:34.669Z,24.50
2022-08-21T17:01:05.515Z,24.80
2022-08-21T17:03:37.650Z,24.80
2022-08-21T17:06:05.349Z,24.90
2022-08-21T17:08:32.493Z,24.90
2022-08-21T17:11:00.147Z,25.00
2022-08-21T17:13:27.535Z,25.10
2022-08-21T17:15:54.554Z,25.20
2022-08-21T17:18:23.757Z,25.30
2022-08-21T17:20:51.229Z,25.40
2022-08-21T17:23:18.681Z,25.50
2022-08-21T17:25:48.601Z,25.60
2022-08-21T17:28:25.264Z,25.80
2022-08-21T17:30:58.129Z,26.30
2022-08-21T17:33:27.491Z,26.20
2022-08-21T17:35:54.372Z,26.30
2022-08-21T17:38:21.225Z,26.30
2022-08-21T17:40:49.000Z,26.30
2022-08-21T17:43:16.062Z,26.30
2022-08-21T17:45:43.724Z,26.50
2022-08-21T17:48:11.067Z,26.60
2022-08-21T17:50:39.702Z,26.60
2022-08-21T17:53:06.597Z,26.60
2022-08-21T17:55:34.717Z,26.70
2022-08-21T17:58:03.586Z,26.80
2022-08-21T18:00:31.806Z,26.90
2022-08-21T18:03:06.061Z,27.00
2022-08-21T18:05:33.028Z,27.30
2022-08-21T18:07:59.782Z,27.10
2022-08-21T18:10:27.616Z,27.30
2022-08-21T18:12:54.730Z,27.30
2022-08-21T18:15:21.842Z,27.40
2022-08-21T18:17:50.931Z,27.50
2022-08-21T18:20:20.929Z,27.60
2022-08-21T18:22:47.749Z,27.70
2022-08-21T18:25:15.360Z,27.80
2022-08-21T18:27:45.675Z,28.30
2022-08-21T18:30:16.174Z,28.10
2022-08-21T18:32:43.842Z,28.20
2022-08-21T18:35:11.565Z,28.30
2022-08-21T18:37:39.242Z,28.40
2022-08-21T18:40:08.596Z,28.50
2022-08-21T18:42:42.345Z,28.60
2022-08-21T18:45:17.207Z,28.80
2022-08-21T18:47:48.638Z,28.80
2022-08-21T18:50:19.033Z,28.90
2022-08-21T18:53:23.953Z,29.00
2022-08-21T18:55:34.959Z,29.00
2022-08-21T18:58:02.383Z,29.00
2022-08-21T19:00:34.182Z,29.10
2022-08-21T19:03:01.505Z,29.40
2022-08-21T19:05:28.386Z,29.20
2022-08-21T19:07:56.419Z,29.30
2022-08-21T19:10:24.175Z,29.40
2022-08-21T19:12:51.962Z,29.50
2022-08-21T19:15:21.642Z,29.50
2022-08-21T19:17:51.446Z,29.70
2022-08-21T19:20:26.367Z,29.70
2022-08-21T19:22:55.346Z,29.90
2022-08-21T19:25:33.430Z,29.80
2022-08-21T19:28:10.969Z,29.80
2022-08-21T19:30:41.841Z,29.90
2022-08-21T19:33:23.510Z,30.00
2022-08-21T19:35:52.520Z,30.00
2022-08-21T19:38:20.402Z,30.00
2022-08-21T19:40:47.850Z,30.20
2022-08-21T19:43:15.131Z,30.40
2022-08-21T19:45:42.235Z,30.50
2022-08-21T19:48:09.831Z,30.50
2022-08-21T19:50:37.011Z,30.60
2022-08-21T19:53:04.798Z,30.50
2022-08-21T19:55:43.401Z,30.60
2022-08-21T19:58:32.357Z,30.80
2022-08-21T20:00:59.171Z,31.10
2022-08-21T20:03:26.182Z,30.80
2022-08-21T20:05:53.957Z,30.90
2022-08-21T20:08:21.195Z,31.10
2022-08-21T20:13:35.505Z,31.40
2022-08-21T20:16:06.572Z,31.30
2022-08-21T20:18:34.931Z,31.50
2022-08-21T20:21:02.856Z,31.50
2022-08-21T20:23:33.001Z,31.60
2022-08-21T20:26:02.081Z,31.70
2022-08-21T20:28:32.902Z,31.80
2022-08-21T20:31:00.986Z,31.90
2022-08-21T20:33:30.121Z,32.10
2022-08-21T20:35:57.026Z,32.20
2022-08-21T20:38:24.335Z,32.20
2022-08-21T20:40:53.785Z,32.20
2022-08-21T20:43:22.859Z,32.40
2022-08-21T20:45:50.374Z,32.50
2022-08-21T20:48:32.762Z,32.60
2022-08-21T20:51:27.318Z,33.00
2022-08-21T20:54:12.784Z,33.00
2022-08-21T20:56:45.521Z,33.40
2022-08-21T20:59:26.442Z,32.90
2022-08-21T21:01:59.537Z,33.40
2022-08-21T21:04:40.046Z,33.20
2022-08-21T21:07:09.032Z,33.50
2022-08-21T21:09:45.599Z,33.30
2022-08-21T21:12:27.630Z,33.70
2022-08-21T21:14:59.127Z,33.90
2022-08-21T21:17:40.437Z,34.20
2022-08-21T21:20:16.577Z,34.80
2022-08-21T21:22:57.216Z,34.50
2022-08-21T21:25:40.529Z,34.80
2022-08-21T21:28:30.609Z,35.00
2022-08-21T21:30:57.745Z,34.70
2022-08-21T21:33:24.796Z,34.60
2022-08-21T21:35:57.077Z,34.70
2022-08-21T21:38:53.449Z,35.00
2022-08-21T21:41:44.752Z,35.60
2022-08-21T21:44:42.942Z,35.50
2022-08-21T21:47:26.745Z,35.50
2022-08-21T21:50:27.546Z,35.40
2022-08-21T21:53:01.211Z,35.60
2022-08-21T21:55:50.690Z,35.40
2022-08-21T21:58:27.349Z,35.80
2022-08-21T22:01:23.930Z,35.90
2022-08-21T22:04:18.481Z,36.20
2022-08-21T22:07:09.157Z,36.20
2022-08-21T22:09:45.408Z,36.20
2022-08-21T22:15:27.376Z,36.40
2022-08-21T22:18:09.987Z,35.80
2022-08-21T22:21:00.689Z,36.50
2022-08-21T22:23:32.982Z,36.60
2022-08-21T22:26:07.421Z,36.20
2022-08-21T22:28:39.273Z,36.60
2022-08-21T22:31:18.345Z,36.60
2022-08-21T22:34:07.162Z,37.00
2022-08-21T22:36:50.222Z,37.30
2022-08-21T22:39:39.557Z,36.70
2022-08-21T22:42:20.345Z,37.00
2022-08-21T22:44:53.411Z,37.10
2022-08-21T22:47:30.562Z,37.00
2022-08-21T22:50:04.395Z,37.10
2022-08-21T22:52:37.038Z,36.90
2022-08-21T22:55:39.034Z,37.30
2022-08-21T22:58:18.800Z,37.80
2022-08-21T23:00:54.584Z,37.10
2022-08-21T23:03:47.833Z,37.50
2022-08-21T23:06:49.356Z,38.40
2022-08-21T23:09:28.305Z,38.50
2022-08-21T23:11:58.093Z,37.90
2022-08-21T23:14:25.708Z,37.90
2022-08-21T23:16:59.216Z,38.00
2022-08-21T23:19:44.459Z,38.20
2022-08-21T23:22:44.671Z,38.50
2022-08-21T23:25:14.156Z,38.60
2022-08-21T23:28:06.010Z,38.10
2022-08-21T23:30:46.262Z,38.40
2022-08-21T23:33:43.085Z,38.30
2022-08-21T23:36:38.169Z,38.70
2022-08-21T23:39:14.070Z,38.30
2022-08-21T23:41:44.261Z,38.30
2022-08-21T23:48:06.496Z,38.80
2022-08-21T23:51:00.345Z,38.90
2022-08-21T23:54:02.175Z,38.90
2022-08-21T23:57:23.243Z,39.00
